createdAt,value
2016-12-30T00:00:11.766Z,0
2016-12-30T00:00:52.226Z,0
2016-12-30T00:01:32.741Z,0
2016-12-30T00:02:13.206Z,0
2016-12-30T00:02:54.630Z,0
2016-12-30T00:03:35.124Z,0
2016-12-30T00:04:15.564Z,0
2016-12-30T00:04:56.763Z,0
2016-12-30T00:05:37.223Z,0
2016-12-30T00:06:17.651Z,0
2016-12-30T00:06:58.180Z,0
2016-12-30T00:07:38.634Z,0
2016-12-30T00:08:19.124Z,0
2016-12-30T00:08:59.548Z,0
2016-12-30T00:09:40.049Z,0
2016-12-30T00:10:20.513Z,0
2016-12-30T00:11:00.992Z,0
2016-12-30T00:11:41.483Z,0
2016-12-30T00:12:21.934Z,0
2016-12-30T00:13:03.349Z,0
2016-12-30T00:13:47.435Z,0
2016-12-30T00:14:29.260Z,0
2016-12-30T00:15:09.773Z,0
2016-12-30T00:15:50.194Z,0
2016-12-30T00:16:30.697Z,0
2016-12-30T00:17:11.159Z,0
2016-12-30T00:17:51.628Z,0
2016-12-30T00:18:32.070Z,0
2016-12-30T00:19:13.319Z,0
2016-12-30T00:19:53.803Z,0
2016-12-30T00:20:34.854Z,0
2016-12-30T00:21:15.360Z,0
2016-12-30T00:21:55.844Z,0
2016-12-30T00:22:36.314Z,0
2016-12-30T00:23:16.853Z,0
2016-12-30T00:23:57.318Z,0
2016-12-30T00:24:37.836Z,0
2016-12-30T00:25:18.305Z,0
2016-12-30T00:25:58.791Z,0
2016-12-30T00:26:39.261Z,0
2016-12-30T00:27:19.792Z,0
2016-12-30T00:28:00.262Z,0
2016-12-30T00:28:40.737Z,0
2016-12-30T00:29:21.250Z,0
2016-12-30T00:30:01.707Z,0
2016-12-30T00:30:42.300Z,0
2016-12-30T00:31:22.808Z,0
2016-12-30T00:32:03.936Z,0
2016-12-30T00:32:44.398Z,0
2016-12-30T00:33:24.874Z,0
2016-12-30T00:34:06.279Z,0
2016-12-30T00:34:47.617Z,0
2016-12-30T00:35:28.686Z,0
2016-12-30T00:36:10.802Z,0
2016-12-30T00:36:51.309Z,0
2016-12-30T00:37:31.834Z,0
2016-12-30T00:38:12.915Z,0
2016-12-30T00:38:53.415Z,0
2016-12-30T00:39:34.833Z,0
2016-12-30T00:40:15.308Z,0
2016-12-30T00:40:55.829Z,0
2016-12-30T00:41:36.242Z,0
2016-12-30T00:42:18.303Z,0
2016-12-30T00:42:58.792Z,0
2016-12-30T00:43:39.278Z,0
2016-12-30T00:44:19.727Z,0
2016-12-30T00:45:00.251Z,0
2016-12-30T00:45:40.645Z,0
2016-12-30T00:46:21.152Z,0
2016-12-30T00:47:02.260Z,0
2016-12-30T00:47:42.720Z,0
2016-12-30T00:48:23.213Z,0
2016-12-30T00:49:04.509Z,0
2016-12-30T00:49:45.737Z,0
2016-12-30T00:50:26.824Z,0
2016-12-30T00:51:07.319Z,0
2016-12-30T00:51:47.829Z,0
2016-12-30T00:52:28.313Z,0
2016-12-30T00:53:08.754Z,0
2016-12-30T00:53:49.385Z,0
2016-12-30T00:54:29.860Z,0
2016-12-30T00:55:10.351Z,0
2016-12-30T00:55:50.830Z,0
2016-12-30T00:56:31.309Z,0
2016-12-30T00:57:11.788Z,0
2016-12-30T00:57:52.246Z,0
2016-12-30T00:58:32.779Z,0
2016-12-30T00:59:13.782Z,0
2016-12-30T00:59:54.219Z,0
2016-12-30T01:00:34.740Z,0
2016-12-30T01:01:15.210Z,0
2016-12-30T01:01:55.672Z,0
2016-12-30T01:02:36.182Z,0
2016-12-30T01:03:16.631Z,0
2016-12-30T01:03:57.116Z,0
2016-12-30T01:04:37.604Z,0
2016-12-30T01:05:18.112Z,0
2016-12-30T01:05:58.530Z,0
2016-12-30T01:06:40.377Z,0
2016-12-30T01:07:20.894Z,0
2016-12-30T01:08:04.729Z,0
2016-12-30T01:08:45.207Z,0
2016-12-30T01:09:26.638Z,0
2016-12-30T01:10:07.182Z,0
2016-12-30T01:10:47.632Z,0
2016-12-30T01:11:28.084Z,0
2016-12-30T01:12:08.548Z,0
2016-12-30T01:12:49.023Z,0
2016-12-30T01:13:29.495Z,0
2016-12-30T01:14:09.973Z,0
2016-12-30T01:14:50.468Z,0
2016-12-30T01:15:30.971Z,0
2016-12-30T01:16:11.527Z,0
2016-12-30T01:16:52.015Z,0
2016-12-30T01:17:35.351Z,0
2016-12-30T01:18:15.839Z,0
2016-12-30T01:18:56.290Z,0
2016-12-30T01:19:38.484Z,0
2016-12-30T01:20:18.895Z,0
2016-12-30T01:20:59.893Z,0
2016-12-30T01:21:41.015Z,0
2016-12-30T01:22:21.480Z,0
2016-12-30T01:23:01.940Z,0
2016-12-30T01:23:44.061Z,0
2016-12-30T01:24:25.114Z,0
2016-12-30T01:25:05.598Z,0
2016-12-30T01:25:47.772Z,0
2016-12-30T01:26:28.284Z,0
2016-12-30T01:27:09.411Z,0
2016-12-30T01:27:50.523Z,0
2016-12-30T01:28:31.511Z,0
2016-12-30T01:29:12.527Z,0
2016-12-30T01:29:55.407Z,0
2016-12-30T01:30:35.914Z,0
2016-12-30T01:31:18.232Z,0
2016-12-30T01:31:58.766Z,0
2016-12-30T01:32:39.219Z,0
2016-12-30T01:33:19.704Z,0
2016-12-30T01:34:00.132Z,0
2016-12-30T01:34:40.591Z,0
2016-12-30T01:35:21.719Z,0
2016-12-30T01:36:03.079Z,0
2016-12-30T01:36:43.531Z,0
2016-12-30T01:37:24.025Z,0
2016-12-30T01:38:04.523Z,0
2016-12-30T01:38:47.304Z,0
2016-12-30T01:41:14.283Z,0
2016-12-30T01:42:03.353Z,0
2016-12-30T01:42:53.512Z,0
2016-12-30T01:43:42.930Z,0
2016-12-30T01:44:32.119Z,0
2016-12-30T01:45:20.727Z,0
2016-12-30T01:46:09.453Z,0
2016-12-30T01:47:00.806Z,0
2016-12-30T01:47:50.009Z,0
2016-12-30T01:48:38.206Z,0
2016-12-30T01:49:28.782Z,0
2016-12-30T01:50:17.374Z,0
2016-12-30T01:51:06.043Z,0
2016-12-30T01:51:54.445Z,0
2016-12-30T01:52:43.132Z,0
2016-12-30T01:53:31.633Z,0
2016-12-30T01:54:22.494Z,0
2016-12-30T01:55:11.474Z,0
2016-12-30T01:55:59.719Z,0
2016-12-30T01:56:48.557Z,0
2016-12-30T01:57:36.852Z,0
2016-12-30T01:58:25.997Z,0
2016-12-30T01:59:14.629Z,0
2016-12-30T02:00:03.120Z,0
2016-12-30T02:00:52.177Z,0
2016-12-30T02:01:40.762Z,0
2016-12-30T02:02:29.682Z,0
2016-12-30T02:03:20.179Z,0
2016-12-30T02:04:08.561Z,0
2016-12-30T02:04:57.552Z,0
2016-12-30T02:05:46.712Z,0
2016-12-30T02:06:35.605Z,0
2016-12-30T02:07:24.004Z,0
2016-12-30T02:08:12.878Z,0
2016-12-30T02:09:01.235Z,0
2016-12-30T02:09:50.097Z,0
2016-12-30T02:12:11.327Z,0
2016-12-30T02:13:00.159Z,0
2016-12-30T02:13:48.649Z,0
2016-12-30T02:14:37.169Z,0
2016-12-30T02:15:24.400Z,0
2016-12-30T02:16:13.162Z,0
2016-12-30T02:17:01.645Z,0
2016-12-30T02:17:50.362Z,0
2016-12-30T02:18:39.191Z,0
2016-12-30T02:19:27.677Z,0
2016-12-30T02:20:16.432Z,0
2016-12-30T02:21:04.987Z,0
2016-12-30T02:21:53.381Z,0
2016-12-30T02:22:42.140Z,0
2016-12-30T02:23:31.060Z,0
2016-12-30T02:24:19.165Z,0
2016-12-30T02:25:08.474Z,0
2016-12-30T02:25:56.763Z,0
2016-12-30T02:26:46.099Z,0
2016-12-30T02:27:34.318Z,0
2016-12-30T02:28:23.129Z,0
2016-12-30T02:29:11.617Z,0
2016-12-30T02:30:00.370Z,0
2016-12-30T02:30:48.897Z,0
2016-12-30T02:31:37.439Z,0
2016-12-30T02:32:26.547Z,0
2016-12-30T02:33:15.127Z,0
2016-12-30T02:34:03.373Z,0
2016-12-30T02:34:52.542Z,0
2016-12-30T02:35:40.776Z,0
2016-12-30T02:36:29.381Z,0
2016-12-30T02:37:18.017Z,0
2016-12-30T02:38:06.777Z,0
2016-12-30T02:38:55.553Z,0
2016-12-30T02:39:43.810Z,0
2016-12-30T02:40:32.993Z,0
2016-12-30T02:41:21.679Z,0
2016-12-30T02:42:09.949Z,0
2016-12-30T02:42:59.065Z,0
2016-12-30T02:43:47.604Z,0
2016-12-30T02:44:35.670Z,0
2016-12-30T02:45:24.590Z,0
2016-12-30T02:46:04.314Z,0
2016-12-30T02:46:44.840Z,0
2016-12-30T02:47:25.331Z,0
2016-12-30T02:48:05.815Z,0
2016-12-30T02:48:46.277Z,0
2016-12-30T02:49:26.744Z,0
2016-12-30T02:50:07.242Z,0
2016-12-30T02:50:47.676Z,0
2016-12-30T02:51:28.189Z,0
2016-12-30T02:52:08.630Z,0
2016-12-30T02:52:49.161Z,0
2016-12-30T02:53:30.252Z,0
2016-12-30T02:54:10.783Z,0
2016-12-30T02:54:51.222Z,0
2016-12-30T02:55:31.703Z,0
2016-12-30T02:56:12.201Z,0
2016-12-30T02:56:52.690Z,0
2016-12-30T02:57:33.209Z,0
2016-12-30T02:58:13.697Z,0
2016-12-30T02:58:54.162Z,0
2016-12-30T02:59:34.601Z,0
2016-12-30T03:00:15.111Z,0
2016-12-30T03:00:55.588Z,0
2016-12-30T03:01:36.074Z,0
2016-12-30T03:02:16.548Z,0
2016-12-30T03:02:57.021Z,0
2016-12-30T03:03:37.485Z,0
2016-12-30T03:04:17.994Z,0
2016-12-30T03:04:58.433Z,0
2016-12-30T03:05:38.923Z,0
2016-12-30T03:06:19.401Z,0
2016-12-30T03:06:59.881Z,0
2016-12-30T03:07:40.346Z,0
2016-12-30T03:08:20.839Z,0
2016-12-30T03:09:01.336Z,0
2016-12-30T03:09:41.789Z,0
2016-12-30T03:10:22.281Z,0
2016-12-30T03:11:02.784Z,0
2016-12-30T03:11:44.099Z,0
2016-12-30T03:12:24.522Z,0
2016-12-30T03:13:05.012Z,0
2016-12-30T03:13:45.509Z,0
2016-12-30T03:14:26.831Z,0
2016-12-30T03:15:07.482Z,0
2016-12-30T03:15:48.837Z,0
2016-12-30T03:16:29.334Z,0
2016-12-30T03:17:09.805Z,0
2016-12-30T03:17:50.277Z,0
2016-12-30T03:18:30.775Z,0
2016-12-30T03:19:12.073Z,0
2016-12-30T03:19:52.540Z,0
2016-12-30T03:20:33.062Z,0
2016-12-30T03:21:13.496Z,0
2016-12-30T03:21:53.964Z,0
2016-12-30T03:22:34.452Z,0
2016-12-30T03:23:15.555Z,0
2016-12-30T03:23:56.057Z,0
2016-12-30T03:24:36.479Z,0
2016-12-30T03:25:16.949Z,0
2016-12-30T03:25:57.441Z,0
2016-12-30T03:26:37.940Z,0
2016-12-30T03:27:19.149Z,0
2016-12-30T03:27:59.641Z,0
2016-12-30T03:28:40.137Z,0
2016-12-30T03:29:20.617Z,0
2016-12-30T03:30:01.093Z,0
2016-12-30T03:30:41.604Z,0
2016-12-30T03:31:22.636Z,0
2016-12-30T03:32:03.196Z,0
2016-12-30T03:32:43.605Z,0
2016-12-30T03:33:24.767Z,0
2016-12-30T03:34:05.276Z,0
2016-12-30T03:34:45.727Z,0
2016-12-30T03:35:26.231Z,0
2016-12-30T03:36:06.685Z,0
2016-12-30T03:36:47.182Z,0
2016-12-30T03:37:27.653Z,0
2016-12-30T03:38:08.122Z,0
2016-12-30T03:38:48.573Z,0
2016-12-30T03:39:29.256Z,0
2016-12-30T03:40:10.617Z,0
2016-12-30T03:42:58.685Z,0
2016-12-30T03:43:47.674Z,0
2016-12-30T03:44:36.185Z,0
2016-12-30T03:45:25.273Z,0
2016-12-30T03:46:13.928Z,0
2016-12-30T03:47:02.100Z,0
2016-12-30T03:47:50.901Z,0
2016-12-30T03:48:39.430Z,0
2016-12-30T03:49:28.192Z,0
2016-12-30T03:50:17.151Z,0
2016-12-30T03:51:05.311Z,0
2016-12-30T03:51:54.371Z,0
2016-12-30T03:52:43.144Z,0
2016-12-30T03:53:31.708Z,0
2016-12-30T03:54:20.256Z,0
2016-12-30T03:55:08.523Z,0
2016-12-30T03:55:57.713Z,0
2016-12-30T03:56:45.915Z,0
2016-12-30T03:57:34.728Z,0
2016-12-30T03:58:23.295Z,0
2016-12-30T03:59:12.070Z,0
2016-12-30T04:00:00.782Z,0
2016-12-30T04:00:49.349Z,0
2016-12-30T04:01:38.121Z,0
2016-12-30T04:02:26.402Z,0
2016-12-30T04:03:15.260Z,0
2016-12-30T04:04:03.920Z,0
2016-12-30T04:04:52.274Z,0
2016-12-30T04:05:41.133Z,0
2016-12-30T04:06:30.631Z,0
2016-12-30T04:07:18.935Z,0
2016-12-30T04:08:07.760Z,0
2016-12-30T04:08:56.806Z,0
2016-12-30T04:09:45.184Z,0
2016-12-30T04:10:33.961Z,0
2016-12-30T04:11:22.792Z,0
2016-12-30T04:12:11.091Z,0
2016-12-30T04:13:00.058Z,0
2016-12-30T04:13:48.759Z,0
2016-12-30T04:14:36.963Z,0
2016-12-30T04:15:25.758Z,0
2016-12-30T04:16:14.434Z,0
2016-12-30T04:17:03.589Z,0
2016-12-30T04:17:51.812Z,0
2016-12-30T04:18:40.921Z,0
2016-12-30T04:19:29.549Z,0
2016-12-30T04:20:17.715Z,0
2016-12-30T04:21:06.603Z,0
2016-12-30T04:21:55.152Z,0
2016-12-30T04:22:44.048Z,0
2016-12-30T04:23:32.244Z,0
2016-12-30T04:24:21.293Z,0
2016-12-30T04:25:09.510Z,0
2016-12-30T04:25:58.645Z,0
2016-12-30T04:26:47.277Z,0
2016-12-30T04:27:36.265Z,0
2016-12-30T04:28:24.509Z,0
2016-12-30T04:29:13.452Z,0
2016-12-30T04:30:02.200Z,0
2016-12-30T04:30:50.852Z,0
2016-12-30T04:31:39.697Z,0
2016-12-30T04:32:28.219Z,0
2016-12-30T04:33:17.125Z,0
2016-12-30T04:34:05.703Z,0
2016-12-30T04:34:53.909Z,0
2016-12-30T04:35:42.620Z,0
2016-12-30T04:36:31.242Z,0
2016-12-30T04:37:19.782Z,0
2016-12-30T04:38:08.679Z,0
2016-12-30T04:38:57.322Z,0
2016-12-30T04:39:45.786Z,0
2016-12-30T04:40:34.438Z,0
2016-12-30T04:41:23.401Z,0
2016-12-30T04:42:11.906Z,0
2016-12-30T04:43:00.665Z,0
2016-12-30T04:43:49.280Z,0
2016-12-30T04:44:38.124Z,0
2016-12-30T04:45:27.034Z,0
2016-12-30T04:47:48.072Z,0
2016-12-30T04:48:37.184Z,0
2016-12-30T04:49:25.342Z,0
2016-12-30T04:50:13.759Z,0
2016-12-30T04:51:02.802Z,0
2016-12-30T04:51:50.998Z,0
2016-12-30T04:52:39.392Z,0
2016-12-30T04:53:28.559Z,0
2016-12-30T04:54:16.930Z,0
2016-12-30T04:55:05.902Z,0
2016-12-30T04:55:54.684Z,0
2016-12-30T04:56:43.160Z,0
2016-12-30T04:57:31.818Z,0
2016-12-30T04:58:20.325Z,0
2016-12-30T04:59:07.402Z,0
2016-12-30T04:59:56.612Z,0
2016-12-30T05:00:44.800Z,0
2016-12-30T05:01:33.524Z,0
2016-12-30T05:02:22.273Z,0
2016-12-30T05:03:10.886Z,0
2016-12-30T05:03:59.477Z,0
2016-12-30T05:04:48.206Z,0
2016-12-30T05:05:36.785Z,0
2016-12-30T05:06:25.392Z,0
2016-12-30T05:07:14.009Z,0
2016-12-30T05:08:02.755Z,0
2016-12-30T05:08:51.352Z,0
2016-12-30T05:09:39.990Z,0
2016-12-30T05:10:28.767Z,0
2016-12-30T05:11:17.641Z,0
2016-12-30T05:12:06.247Z,0
2016-12-30T05:12:55.106Z,0
2016-12-30T05:13:43.533Z,0
2016-12-30T05:14:32.449Z,0
2016-12-30T05:15:21.123Z,0
2016-12-30T05:16:09.878Z,0
2016-12-30T05:16:58.094Z,0
2016-12-30T05:17:47.210Z,0
2016-12-30T05:18:35.909Z,0
2016-12-30T05:19:24.473Z,0
2016-12-30T05:20:12.936Z,0
2016-12-30T05:21:01.564Z,0
2016-12-30T05:21:50.232Z,0
2016-12-30T05:22:39.113Z,0
2016-12-30T05:23:27.579Z,0
2016-12-30T05:24:16.631Z,0
2016-12-30T05:25:04.936Z,0
2016-12-30T05:25:53.626Z,0
2016-12-30T05:26:42.724Z,0
2016-12-30T05:27:30.999Z,0
2016-12-30T05:28:10.932Z,0
2016-12-30T05:28:51.455Z,0
2016-12-30T05:29:31.865Z,0
2016-12-30T05:30:12.421Z,0
2016-12-30T05:30:52.863Z,0
2016-12-30T05:31:33.347Z,0
2016-12-30T05:32:13.805Z,0
2016-12-30T05:32:54.263Z,0
2016-12-30T05:33:34.751Z,0
2016-12-30T05:34:15.228Z,0
2016-12-30T05:34:55.762Z,0
2016-12-30T05:35:36.216Z,0
2016-12-30T05:36:16.697Z,0
2016-12-30T05:36:57.140Z,0
2016-12-30T05:37:37.666Z,0
2016-12-30T05:38:18.138Z,0
2016-12-30T05:38:58.621Z,0
2016-12-30T05:39:39.052Z,0
2016-12-30T05:40:19.529Z,0
2016-12-30T05:41:00.891Z,0
2016-12-30T05:41:41.372Z,0
2016-12-30T05:42:21.889Z,0
2016-12-30T05:43:03.243Z,0
2016-12-30T05:43:43.694Z,0
2016-12-30T05:44:24.209Z,0
2016-12-30T05:45:04.616Z,0
2016-12-30T05:45:45.727Z,0
2016-12-30T05:46:26.172Z,0
2016-12-30T05:47:06.636Z,0
2016-12-30T05:47:47.262Z,0
2016-12-30T05:48:29.309Z,0
2016-12-30T05:49:09.730Z,0
2016-12-30T05:49:50.795Z,0
2016-12-30T05:50:31.316Z,0
2016-12-30T05:51:13.693Z,0
2016-12-30T05:51:54.896Z,0
2016-12-30T05:52:35.377Z,0
2016-12-30T05:53:15.956Z,0
2016-12-30T05:53:56.442Z,0
2016-12-30T05:54:36.905Z,0
2016-12-30T05:55:17.381Z,0
2016-12-30T05:55:57.785Z,0
2016-12-30T05:56:38.894Z,0
2016-12-30T05:57:19.367Z,0
2016-12-30T05:58:01.197Z,0
2016-12-30T05:58:41.681Z,0
2016-12-30T05:59:22.163Z,0
2016-12-30T06:00:02.625Z,0
2016-12-30T06:00:43.689Z,0
2016-12-30T06:01:24.157Z,0
2016-12-30T06:02:04.687Z,0
2016-12-30T06:02:45.768Z,0
2016-12-30T06:03:26.894Z,0
2016-12-30T06:04:07.440Z,0
2016-12-30T06:04:47.940Z,0
2016-12-30T06:05:28.473Z,0
2016-12-30T06:06:08.999Z,0
2016-12-30T06:06:51.311Z,0
2016-12-30T06:07:31.759Z,0
2016-12-30T06:08:12.251Z,0
2016-12-30T06:08:52.737Z,0
2016-12-30T06:09:33.160Z,0
2016-12-30T06:10:13.669Z,0
2016-12-30T06:10:55.001Z,0
2016-12-30T06:11:35.479Z,0
2016-12-30T06:12:15.988Z,0
2016-12-30T06:12:56.424Z,0
2016-12-30T06:13:36.926Z,0
2016-12-30T06:14:17.479Z,0
2016-12-30T06:14:57.872Z,0
2016-12-30T06:15:38.356Z,0
2016-12-30T06:16:18.818Z,0
2016-12-30T06:16:59.320Z,0
2016-12-30T06:17:39.870Z,0
2016-12-30T06:18:20.262Z,0
2016-12-30T06:19:00.733Z,0
2016-12-30T06:19:41.200Z,0
2016-12-30T06:20:21.681Z,0
2016-12-30T06:21:02.176Z,0
2016-12-30T06:21:42.631Z,0
2016-12-30T06:22:23.158Z,0
2016-12-30T06:23:03.582Z,0
2016-12-30T06:23:44.059Z,0
2016-12-30T06:24:24.583Z,0
2016-12-30T06:25:04.958Z,0
2016-12-30T06:25:45.513Z,0
2016-12-30T06:26:26.913Z,0
2016-12-30T06:27:07.454Z,0
2016-12-30T06:27:47.993Z,0
2016-12-30T06:28:29.260Z,0
2016-12-30T06:29:10.608Z,0
2016-12-30T06:29:51.099Z,0
2016-12-30T06:30:31.568Z,0
2016-12-30T06:31:12.908Z,0
2016-12-30T06:31:53.985Z,0
2016-12-30T06:32:37.136Z,0
2016-12-30T06:33:17.632Z,0
2016-12-30T06:33:58.096Z,0
2016-12-30T06:34:39.482Z,0
2016-12-30T06:35:21.499Z,0
2016-12-30T06:36:02.004Z,0
2016-12-30T06:36:42.493Z,0
2016-12-30T06:37:23.886Z,0
2016-12-30T06:38:04.425Z,0
2016-12-30T06:38:44.829Z,0
2016-12-30T06:39:25.994Z,0
2016-12-30T06:40:06.500Z,0
2016-12-30T06:40:47.010Z,0
2016-12-30T06:41:27.447Z,0
2016-12-30T06:42:07.887Z,0
2016-12-30T06:42:48.370Z,0
2016-12-30T06:43:28.880Z,0
2016-12-30T06:44:09.390Z,0
2016-12-30T06:44:49.892Z,0
2016-12-30T06:45:30.308Z,0
2016-12-30T06:46:10.808Z,0
2016-12-30T06:46:51.262Z,0
2016-12-30T06:47:32.396Z,0
2016-12-30T06:48:12.879Z,0
2016-12-30T06:48:53.367Z,0
2016-12-30T06:49:34.785Z,0
2016-12-30T06:50:15.323Z,0
2016-12-30T06:50:55.769Z,0
2016-12-30T06:51:36.251Z,0
2016-12-30T06:52:17.618Z,0
2016-12-30T06:52:58.081Z,0
2016-12-30T06:53:38.602Z,0
2016-12-30T06:54:19.061Z,0
2016-12-30T06:54:59.534Z,0
2016-12-30T06:55:40.040Z,0
2016-12-30T06:56:20.485Z,0
2016-12-30T06:57:01.491Z,0
2016-12-30T06:57:42.005Z,0
2016-12-30T06:58:22.572Z,0
2016-12-30T06:59:03.043Z,0
2016-12-30T06:59:43.553Z,0
2016-12-30T07:00:23.975Z,0
2016-12-30T07:01:04.464Z,0
2016-12-30T07:01:44.940Z,0
2016-12-30T07:02:25.416Z,0
2016-12-30T07:03:05.852Z,0
2016-12-30T07:03:46.361Z,0
2016-12-30T07:04:26.854Z,0
2016-12-30T07:05:07.348Z,0
2016-12-30T07:05:47.804Z,0
2016-12-30T07:06:28.248Z,0
2016-12-30T07:07:08.743Z,0
2016-12-30T07:07:49.217Z,0
2016-12-30T07:08:29.689Z,0
2016-12-30T07:09:10.155Z,0
2016-12-30T07:09:50.614Z,0
2016-12-30T07:10:31.134Z,0
2016-12-30T07:11:11.601Z,0
2016-12-30T07:11:52.080Z,0
2016-12-30T07:12:32.567Z,0
2016-12-30T07:13:13.032Z,0
2016-12-30T07:13:53.530Z,0
2016-12-30T07:14:34.018Z,0
2016-12-30T07:15:14.478Z,0
2016-12-30T07:15:54.990Z,0
2016-12-30T07:16:35.454Z,0
2016-12-30T07:17:15.919Z,0
2016-12-30T07:17:56.404Z,0
2016-12-30T07:18:36.865Z,0
2016-12-30T07:19:18.017Z,0
2016-12-30T07:19:57.842Z,0
2016-12-30T07:20:38.281Z,0
2016-12-30T07:21:18.739Z,0
2016-12-30T07:21:59.246Z,0
2016-12-30T07:22:39.834Z,0
2016-12-30T07:23:20.395Z,0
2016-12-30T07:24:00.876Z,0
2016-12-30T07:24:41.384Z,0
2016-12-30T07:25:21.912Z,0
2016-12-30T07:26:02.706Z,0
2016-12-30T07:26:44.603Z,0
2016-12-30T07:27:25.472Z,0
2016-12-30T07:28:06.167Z,0
2016-12-30T07:28:46.866Z,0
2016-12-30T07:29:27.392Z,0
2016-12-30T07:30:08.200Z,0
2016-12-30T07:30:48.547Z,0
2016-12-30T07:31:29.224Z,0
2016-12-30T07:32:09.779Z,0
2016-12-30T07:32:50.317Z,0
2016-12-30T07:33:30.788Z,0
2016-12-30T07:34:11.956Z,0
2016-12-30T07:34:52.482Z,0
2016-12-30T07:35:32.980Z,5
2016-12-30T07:36:13.425Z,5
2016-12-30T07:36:53.954Z,5
2016-12-30T07:37:34.502Z,5
2016-12-30T07:38:15.018Z,5
2016-12-30T07:38:55.731Z,5
2016-12-30T07:39:36.191Z,5
2016-12-30T07:40:17.536Z,5
2016-12-30T07:40:58.899Z,5
2016-12-30T07:41:39.382Z,5
2016-12-30T07:42:20.107Z,5
2016-12-30T07:43:00.915Z,5
2016-12-30T07:43:41.410Z,5
2016-12-30T07:44:22.079Z,5
2016-12-30T07:45:02.627Z,5
2016-12-30T07:45:43.103Z,10
2016-12-30T07:46:23.644Z,10
2016-12-30T07:47:04.089Z,10
2016-12-30T07:47:44.918Z,10
2016-12-30T07:48:25.607Z,10
2016-12-30T07:49:06.291Z,10
2016-12-30T07:49:46.921Z,10
2016-12-30T07:50:27.687Z,10
2016-12-30T07:51:08.444Z,10
2016-12-30T07:51:48.982Z,10
2016-12-30T07:52:29.778Z,15
2016-12-30T07:53:10.346Z,15
2016-12-30T07:53:50.890Z,15
2016-12-30T07:54:31.347Z,15
2016-12-30T07:55:12.262Z,15
2016-12-30T07:55:53.009Z,15
2016-12-30T07:56:33.719Z,15
2016-12-30T07:57:14.677Z,15
2016-12-30T07:57:55.123Z,15
2016-12-30T07:58:35.629Z,20
2016-12-30T07:59:16.127Z,20
2016-12-30T07:59:56.625Z,20
2016-12-30T08:00:37.067Z,20
2016-12-30T08:01:17.545Z,20
2016-12-30T08:01:57.991Z,20
2016-12-30T08:02:39.258Z,20
2016-12-30T08:03:19.753Z,25
2016-12-30T08:04:00.233Z,25
2016-12-30T08:04:40.741Z,25
2016-12-30T08:05:21.224Z,25
2016-12-30T08:06:01.627Z,25
2016-12-30T08:06:42.061Z,25
2016-12-30T08:07:22.638Z,25
2016-12-30T08:08:03.099Z,25
2016-12-30T08:08:43.604Z,30
2016-12-30T08:09:24.099Z,30
2016-12-30T08:10:04.532Z,30
2016-12-30T08:10:45.016Z,30
2016-12-30T08:11:25.481Z,30
2016-12-30T08:12:05.973Z,30
2016-12-30T08:12:46.450Z,30
2016-12-30T08:13:26.911Z,30
2016-12-30T08:14:07.388Z,35
2016-12-30T08:14:47.864Z,35
2016-12-30T08:15:28.350Z,35
2016-12-30T08:16:08.796Z,35
2016-12-30T08:16:49.332Z,35
2016-12-30T08:17:29.819Z,35
2016-12-30T08:18:10.320Z,35
2016-12-30T08:18:50.789Z,35
2016-12-30T08:19:31.271Z,40
2016-12-30T08:20:11.705Z,40
2016-12-30T08:20:52.144Z,40
2016-12-30T08:21:32.625Z,40
2016-12-30T08:22:13.151Z,40
2016-12-30T08:22:53.633Z,40
2016-12-30T08:23:34.084Z,40
2016-12-30T08:24:14.553Z,40
2016-12-30T08:24:55.013Z,45
2016-12-30T08:25:35.506Z,45
2016-12-30T08:26:15.957Z,45
2016-12-30T08:26:56.425Z,45
2016-12-30T08:27:36.904Z,45
2016-12-30T08:28:17.396Z,45
2016-12-30T08:28:57.890Z,45
2016-12-30T08:29:38.383Z,45
2016-12-30T08:30:18.885Z,50
2016-12-30T08:30:59.295Z,50
2016-12-30T08:31:39.895Z,50
2016-12-30T08:32:20.318Z,50
2016-12-30T08:33:00.868Z,50
2016-12-30T08:33:41.257Z,50
2016-12-30T08:34:21.713Z,50
2016-12-30T08:35:02.207Z,55
2016-12-30T08:35:42.761Z,55
2016-12-30T08:36:23.234Z,55
2016-12-30T08:37:03.705Z,55
2016-12-30T08:37:44.147Z,55
2016-12-30T08:38:24.648Z,55
2016-12-30T08:39:05.108Z,55
2016-12-30T08:39:45.523Z,55
2016-12-30T08:40:26.038Z,55
2016-12-30T08:41:06.489Z,60
2016-12-30T08:41:46.980Z,55
2016-12-30T08:42:27.502Z,55
2016-12-30T08:43:07.970Z,55
2016-12-30T08:43:48.433Z,55
2016-12-30T08:44:28.884Z,55
2016-12-30T08:45:09.345Z,55
2016-12-30T08:45:49.890Z,55
2016-12-30T08:46:30.376Z,50
2016-12-30T08:47:10.885Z,50
2016-12-30T08:47:51.389Z,45
2016-12-30T08:48:31.850Z,45
2016-12-30T08:49:12.313Z,45
2016-12-30T08:49:52.778Z,45
2016-12-30T08:50:33.279Z,45
2016-12-30T08:51:13.738Z,40
2016-12-30T08:51:54.178Z,45
2016-12-30T08:52:34.686Z,45
2016-12-30T08:53:15.150Z,50
2016-12-30T08:53:55.656Z,55
2016-12-30T08:54:36.088Z,60
2016-12-30T08:55:16.654Z,65
2016-12-30T08:55:57.096Z,65
2016-12-30T08:56:37.604Z,60
2016-12-30T08:57:18.088Z,60
2016-12-30T08:57:58.560Z,50
2016-12-30T08:58:39.010Z,45
2016-12-30T08:59:19.551Z,45
2016-12-30T09:00:00.013Z,45
2016-12-30T09:00:40.523Z,45
2016-12-30T09:01:20.977Z,40
2016-12-30T09:02:01.553Z,40
2016-12-30T09:02:41.980Z,40
2016-12-30T09:03:22.518Z,40
2016-12-30T09:04:02.968Z,35
2016-12-30T09:04:43.424Z,35
2016-12-30T09:05:23.872Z,35
2016-12-30T09:06:04.332Z,35
2016-12-30T09:06:44.853Z,35
2016-12-30T09:07:25.289Z,35
2016-12-30T09:08:05.787Z,35
2016-12-30T09:08:46.220Z,35
2016-12-30T09:09:26.693Z,35
2016-12-30T09:10:07.176Z,35
2016-12-30T09:10:47.675Z,35
2016-12-30T09:11:28.131Z,35
2016-12-30T09:12:08.572Z,40
2016-12-30T09:12:49.079Z,40
2016-12-30T09:13:29.710Z,40
2016-12-30T09:14:10.279Z,35
2016-12-30T09:14:50.774Z,35
2016-12-30T09:15:31.226Z,40
2016-12-30T09:16:11.720Z,40
2016-12-30T09:16:52.171Z,40
2016-12-30T09:17:32.653Z,40
2016-12-30T09:18:13.165Z,45
2016-12-30T09:18:53.623Z,45
2016-12-30T09:19:34.143Z,45
2016-12-30T09:20:14.600Z,45
2016-12-30T09:20:55.083Z,45
2016-12-30T09:21:35.528Z,50
2016-12-30T09:22:26.938Z,50
2016-12-30T09:23:10.090Z,50
2016-12-30T09:23:50.606Z,55
2016-12-30T09:24:31.095Z,50
2016-12-30T09:25:11.611Z,50
2016-12-30T09:26:04.181Z,50
2016-12-30T09:26:56.018Z,55
2016-12-30T09:29:19.390Z,65
2016-12-30T09:30:06.787Z,60
2016-12-30T09:30:54.773Z,55
2016-12-30T09:31:43.994Z,55
2016-12-30T09:32:32.836Z,55
2016-12-30T09:33:21.307Z,55
2016-12-30T09:34:10.255Z,55
2016-12-30T09:34:59.240Z,60
2016-12-30T09:35:47.281Z,65
2016-12-30T09:36:36.140Z,60
2016-12-30T09:37:24.803Z,60
2016-12-30T09:38:14.483Z,55
2016-12-30T09:39:02.792Z,60
2016-12-30T09:39:51.244Z,60
2016-12-30T09:40:39.973Z,60
2016-12-30T09:41:29.867Z,65
2016-12-30T09:42:18.322Z,60
2016-12-30T09:43:06.980Z,60
2016-12-30T09:43:55.121Z,65
2016-12-30T09:44:43.861Z,65
2016-12-30T09:45:32.761Z,65
2016-12-30T09:46:21.046Z,60
2016-12-30T09:47:09.446Z,55
2016-12-30T09:47:49.693Z,50
2016-12-30T09:48:30.165Z,50
2016-12-30T09:49:10.673Z,55
2016-12-30T09:49:51.159Z,55
2016-12-30T09:50:31.676Z,55
2016-12-30T09:51:12.122Z,60
2016-12-30T09:51:52.601Z,60
2016-12-30T09:52:33.049Z,55
2016-12-30T09:53:13.540Z,55
2016-12-30T09:53:54.066Z,60
2016-12-30T09:54:34.543Z,60
2016-12-30T09:55:15.033Z,60
2016-12-30T09:55:55.483Z,65
2016-12-30T09:56:35.940Z,65
2016-12-30T09:57:16.409Z,65
2016-12-30T09:57:56.892Z,65
2016-12-30T09:58:37.362Z,65
2016-12-30T09:59:17.858Z,65
2016-12-30T09:59:58.328Z,65
2016-12-30T10:00:38.770Z,60
2016-12-30T10:01:19.226Z,60
2016-12-30T10:01:59.701Z,60
2016-12-30T10:02:40.162Z,60
2016-12-30T10:03:20.888Z,60
2016-12-30T10:04:01.324Z,65
2016-12-30T10:04:48.295Z,55
2016-12-30T10:05:28.880Z,55
2016-12-30T10:06:09.224Z,60
2016-12-30T10:06:49.666Z,60
2016-12-30T10:07:30.142Z,60
2016-12-30T10:08:10.601Z,65
2016-12-30T10:08:51.110Z,65
2016-12-30T10:09:31.564Z,60
2016-12-30T10:10:12.135Z,55
2016-12-30T10:10:52.647Z,55
2016-12-30T10:11:33.118Z,55
2016-12-30T10:12:13.645Z,60
2016-12-30T10:12:54.156Z,60
2016-12-30T10:13:34.653Z,60
2016-12-30T10:14:15.114Z,60
2016-12-30T10:14:55.630Z,55
2016-12-30T10:15:36.104Z,55
2016-12-30T10:16:16.609Z,55
2016-12-30T10:16:57.058Z,55
2016-12-30T10:17:37.532Z,60
2016-12-30T10:18:17.990Z,60
2016-12-30T10:18:58.480Z,65
2016-12-30T10:19:38.978Z,65
2016-12-30T10:20:19.457Z,70
2016-12-30T10:20:59.907Z,65
2016-12-30T10:21:40.377Z,60
2016-12-30T10:22:20.845Z,60
2016-12-30T10:23:01.330Z,65
2016-12-30T10:23:41.845Z,55
2016-12-30T10:24:22.303Z,60
2016-12-30T10:25:02.806Z,60
2016-12-30T10:25:43.247Z,65
2016-12-30T10:26:23.739Z,65
2016-12-30T10:27:04.223Z,60
2016-12-30T10:27:44.702Z,60
2016-12-30T10:28:25.189Z,65
2016-12-30T10:29:05.698Z,60
2016-12-30T10:29:46.176Z,60
2016-12-30T10:30:26.659Z,65
2016-12-30T10:31:07.907Z,65
2016-12-30T10:31:48.371Z,65
2016-12-30T10:32:28.839Z,65
2016-12-30T10:33:09.336Z,65
2016-12-30T10:33:49.779Z,65
2016-12-30T10:34:30.246Z,75